createdAt,value
2023-07-22T00:00:02.466Z,6.50
2023-07-22T00:02:31.295Z,6.60
2023-07-22T00:04:58.077Z,7.22
2023-07-22T00:07:25.268Z,7.28
2023-07-22T00:09:53.003Z,7.65
2023-07-22T00:12:20.265Z,7.65
2023-07-22T00:14:47.542Z,7.78
2023-07-22T00:17:15.529Z,7.72
2023-07-22T00:19:42.812Z,7.65
2023-07-22T00:22:09.609Z,8.23
2023-07-22T00:24:36.753Z,8.05
2023-07-22T00:27:04.307Z,8.20
2023-07-22T00:29:31.565Z,7.22
2023-07-22T00:31:58.314Z,7.43
2023-07-22T00:34:25.523Z,6.63
2023-07-22T00:36:53.145Z,7.22
2023-07-22T00:39:20.367Z,7.80
2023-07-22T00:41:48.300Z,7.35
2023-07-22T00:44:15.924Z,7.78
2023-07-22T00:46:43.195Z,7.68
2023-07-22T00:49:10.394Z,7.60
2023-07-22T00:51:37.743Z,7.60
2023-07-22T00:54:06.615Z,7.00
2023-07-22T00:56:38.438Z,7.85
2023-07-22T00:59:06.253Z,6.85
2023-07-22T01:01:33.793Z,6.57
2023-07-22T01:04:03.189Z,7.20
2023-07-22T01:06:31.826Z,7.35
2023-07-22T01:09:00.494Z,7.00
2023-07-22T01:11:27.777Z,7.50
2023-07-22T01:13:59.642Z,7.88
2023-07-22T01:16:30.030Z,7.70
2023-07-22T01:18:58.547Z,7.75
2023-07-22T01:21:26.937Z,7.78
2023-07-22T01:23:54.812Z,9.05
2023-07-22T01:26:22.157Z,8.63
2023-07-22T01:28:49.492Z,9.80
2023-07-22T01:31:16.843Z,9.48
2023-07-22T01:33:44.279Z,10.65
2023-07-22T01:36:11.526Z,10.15
2023-07-22T01:38:38.950Z,8.93
2023-07-22T01:41:06.353Z,8.55
2023-07-22T01:43:33.584Z,9.32
2023-07-22T01:46:00.894Z,8.07
2023-07-22T01:48:28.279Z,7.97
2023-07-22T01:50:55.645Z,7.65
2023-07-22T01:53:22.860Z,7.40
2023-07-22T01:55:50.417Z,8.15
2023-07-22T01:58:17.711Z,8.18
2023-07-22T02:00:45.024Z,7.60
2023-07-22T02:03:12.591Z,8.85
2023-07-22T02:05:40.272Z,8.13
2023-07-22T02:08:07.687Z,8.20
2023-07-22T02:10:34.540Z,8.20
2023-07-22T02:13:01.919Z,7.88
2023-07-22T02:15:29.265Z,7.90
2023-07-22T02:17:56.711Z,7.60
2023-07-22T02:20:24.347Z,7.28
2023-07-22T02:22:51.582Z,8.07
2023-07-22T02:25:18.804Z,7.72
2023-07-22T02:27:46.083Z,7.00
2023-07-22T02:30:13.785Z,7.82
2023-07-22T02:32:42.414Z,8.57
2023-07-22T02:35:10.456Z,9.07
2023-07-22T02:37:41.018Z,7.70
2023-07-22T02:40:09.672Z,8.13
2023-07-22T02:42:36.990Z,8.75
2023-07-22T02:45:05.818Z,8.05
2023-07-22T02:47:36.269Z,8.93
2023-07-22T02:50:06.457Z,8.52
2023-07-22T02:52:34.069Z,9.50
2023-07-22T02:55:12.430Z,10.38
2023-07-22T02:57:40.952Z,10.65
2023-07-22T03:00:09.757Z,10.43
2023-07-22T03:02:37.379Z,9.90
2023-07-22T03:05:11.634Z,11.45
2023-07-22T03:07:40.333Z,14.65
2023-07-22T03:10:08.514Z,13.45
2023-07-22T03:12:36.926Z,15.15
2023-07-22T03:15:05.314Z,14.32
2023-07-22T03:17:32.764Z,14.68
2023-07-22T03:19:59.983Z,16.30
2023-07-22T03:22:27.249Z,15.35
2023-07-22T03:24:54.655Z,15.80
2023-07-22T03:27:23.069Z,17.02
2023-07-22T03:29:50.411Z,17.10
2023-07-22T03:32:17.776Z,16.27
2023-07-22T03:34:45.044Z,17.13
2023-07-22T03:37:12.476Z,16.92
2023-07-22T03:39:39.755Z,16.00
2023-07-22T03:42:07.416Z,16.45
2023-07-22T03:44:35.241Z,17.25
2023-07-22T03:47:02.466Z,16.27
2023-07-22T03:49:29.931Z,18.30
2023-07-22T03:51:57.207Z,16.02
2023-07-22T03:54:24.837Z,16.50
2023-07-22T03:56:52.094Z,16.40
2023-07-22T03:59:19.067Z,16.42
2023-07-22T04:01:47.572Z,15.65
2023-07-22T04:04:14.952Z,14.43
2023-07-22T04:06:42.318Z,15.18
2023-07-22T04:09:09.999Z,14.68
2023-07-22T04:11:37.344Z,12.93
2023-07-22T04:14:04.579Z,12.68
2023-07-22T04:16:32.843Z,12.73
2023-07-22T04:19:00.030Z,12.63
2023-07-22T04:21:27.477Z,13.05
2023-07-22T04:23:55.323Z,11.80
2023-07-22T04:26:22.639Z,11.93
2023-07-22T04:28:49.809Z,11.15
2023-07-22T04:31:16.987Z,11.02
2023-07-22T04:33:44.921Z,10.55
2023-07-22T04:36:12.150Z,9.18
2023-07-22T04:38:40.501Z,9.73
2023-07-22T04:41:07.737Z,9.48
2023-07-22T04:43:35.047Z,10.07
2023-07-22T04:46:02.233Z,8.93
2023-07-22T04:48:29.930Z,10.07
2023-07-22T04:50:57.401Z,9.85
2023-07-22T04:53:24.729Z,10.02
2023-07-22T04:55:52.117Z,9.23
2023-07-22T04:58:19.358Z,8.95
2023-07-22T05:00:46.842Z,7.75
2023-07-22T05:03:15.251Z,7.80
2023-07-22T05:05:43.804Z,8.05
2023-07-22T05:08:11.337Z,7.13
2023-07-22T05:10:39.643Z,6.22
2023-07-22T05:13:07.195Z,6.40
2023-07-22T05:15:34.370Z,5.80
2023-07-22T05:18:01.713Z,6.30
2023-07-22T05:20:29.125Z,5.95
2023-07-22T05:22:56.970Z,6.32
2023-07-22T05:25:24.193Z,5.72
2023-07-22T05:27:51.511Z,5.40
2023-07-22T05:30:32.911Z,5.90
2023-07-22T05:33:02.691Z,5.55
2023-07-22T05:35:30.624Z,6.57
2023-07-22T05:37:58.573Z,5.80
2023-07-22T05:40:27.109Z,6.35
2023-07-22T05:42:54.824Z,5.70
2023-07-22T05:45:22.123Z,5.95
2023-07-22T05:47:49.509Z,5.70
2023-07-22T05:50:17.179Z,6.07
2023-07-22T05:52:44.874Z,5.72
2023-07-22T05:55:12.206Z,6.05
2023-07-22T05:57:39.408Z,5.65
2023-07-22T06:00:09.411Z,6.03
2023-07-22T06:02:37.125Z,6.20
2023-07-22T06:05:05.676Z,5.53
2023-07-22T06:07:32.984Z,6.35
2023-07-22T06:10:00.361Z,6.00
2023-07-22T06:12:27.911Z,6.57
2023-07-22T06:14:55.253Z,6.60
2023-07-22T06:17:22.763Z,6.40
2023-07-22T06:19:50.130Z,6.25
2023-07-22T06:22:17.489Z,6.00
2023-07-22T06:24:44.758Z,8.63
2023-07-22T06:27:12.148Z,11.52
2023-07-22T06:29:39.396Z,7.03
2023-07-22T06:32:07.290Z,6.28
2023-07-22T06:34:34.651Z,6.45
2023-07-22T06:37:01.951Z,7.30
2023-07-22T06:39:29.318Z,6.22
2023-07-22T06:41:56.571Z,5.70
2023-07-22T06:44:24.060Z,6.32
2023-07-22T06:46:51.293Z,5.85
2023-07-22T06:49:18.726Z,6.47
2023-07-22T06:51:46.024Z,6.65
2023-07-22T06:54:13.335Z,5.97
2023-07-22T06:56:40.660Z,4.22
2023-07-22T06:59:07.856Z,3.85
2023-07-22T07:01:35.233Z,3.97
2023-07-22T07:04:02.483Z,3.55
2023-07-22T07:06:31.551Z,3.42
2023-07-22T07:09:02.090Z,3.00
2023-07-22T07:11:31.196Z,2.80
2023-07-22T07:13:59.065Z,2.45
2023-07-22T07:16:33.674Z,2.00
2023-07-22T07:19:03.779Z,1.98
2023-07-22T07:21:30.699Z,1.92
2023-07-22T07:23:58.128Z,2.38
2023-07-22T07:26:25.871Z,1.58
2023-07-22T07:28:54.184Z,4.28
2023-07-22T07:31:21.914Z,2.20
2023-07-22T07:33:49.268Z,1.83
2023-07-22T07:36:16.546Z,2.03
2023-07-22T07:38:43.872Z,1.65
2023-07-22T07:41:16.025Z,1.83
2023-07-22T07:43:43.813Z,1.95
2023-07-22T07:46:29.826Z,2.35
2023-07-22T07:48:59.114Z,1.80
2023-07-22T07:51:31.124Z,1.80
2023-07-22T07:54:00.094Z,3.58
2023-07-22T07:56:27.871Z,6.07
2023-07-22T07:58:55.651Z,2.20
2023-07-22T08:01:23.481Z,2.10
2023-07-22T08:03:50.916Z,1.90
2023-07-22T08:06:22.410Z,18.52
2023-07-22T08:08:51.175Z,2.85
2023-07-22T08:11:18.454Z,1.80
2023-07-22T08:13:46.199Z,2.00
2023-07-22T08:16:15.634Z,2.83
2023-07-22T08:18:43.262Z,6.20
2023-07-22T08:21:11.223Z,2.28
2023-07-22T08:23:38.881Z,4.82
2023-07-22T08:26:09.779Z,3.38
2023-07-22T08:28:36.992Z,2.83
2023-07-22T08:31:04.433Z,10.00
2023-07-22T08:36:03.965Z,3.05
2023-07-22T08:38:31.656Z,1.92
2023-07-22T08:40:59.010Z,1.67
2023-07-22T08:43:28.996Z,1.45
2023-07-22T08:45:59.033Z,1.77
2023-07-22T08:48:30.885Z,1.67
2023-07-22T08:51:11.725Z,1.88
2023-07-22T08:53:39.434Z,1.65
2023-07-22T08:56:07.720Z,1.48
2023-07-22T08:58:36.084Z,1.95
2023-07-22T09:01:05.063Z,8.40
2023-07-22T09:03:33.704Z,2.40
2023-07-22T09:06:01.049Z,1.65
2023-07-22T09:08:29.233Z,1.45
2023-07-22T09:10:58.017Z,1.80
2023-07-22T09:13:28.332Z,1.60
2023-07-22T09:15:59.709Z,1.80
2023-07-22T09:18:27.823Z,1.50
2023-07-22T09:20:55.070Z,1.48
2023-07-22T09:23:37.279Z,1.48
2023-07-22T09:26:15.666Z,1.77
2023-07-22T09:28:57.671Z,1.73
2023-07-22T09:31:27.184Z,1.45
2023-07-22T09:33:58.071Z,1.70
2023-07-22T09:36:25.554Z,1.40
2023-07-22T09:39:04.610Z,1.77
2023-07-22T09:41:32.353Z,1.52
2023-07-22T09:44:04.577Z,2.00
2023-07-22T09:46:36.311Z,1.50
2023-07-22T09:49:06.758Z,2.33
2023-07-22T09:51:49.226Z,1.50
2023-07-22T09:54:30.827Z,3.67
2023-07-22T09:56:58.158Z,4.20
2023-07-22T09:59:30.425Z,1.90
2023-07-22T10:02:02.365Z,2.88
2023-07-22T10:04:34.604Z,3.65
2023-07-22T10:07:02.126Z,2.13
2023-07-22T10:09:31.664Z,3.45
2023-07-22T10:11:58.990Z,2.45
2023-07-22T10:14:27.710Z,1.90
2023-07-22T10:16:56.161Z,2.58
2023-07-22T10:19:25.268Z,2.10
2023-07-22T10:21:52.557Z,2.78
2023-07-22T10:24:21.284Z,2.63
2023-07-22T10:26:53.060Z,1.83
2023-07-22T10:29:21.801Z,2.10
2023-07-22T10:31:54.708Z,1.50
2023-07-22T10:34:28.144Z,2.20
2023-07-22T10:36:59.964Z,23.33
2023-07-22T10:39:28.650Z,1.73
2023-07-22T10:42:06.391Z,2.30
2023-07-22T10:44:37.294Z,2.90
2023-07-22T10:47:09.121Z,2.35
2023-07-22T10:49:50.032Z,1.70
2023-07-22T10:52:44.674Z,1.67
2023-07-22T10:55:17.186Z,1.70
2023-07-22T10:57:57.454Z,1.80
2023-07-22T11:00:30.414Z,1.25
2023-07-22T11:03:27.099Z,2.60
2023-07-22T11:05:57.453Z,2.22
2023-07-22T11:08:38.881Z,2.08
2023-07-22T11:11:06.975Z,3.72
2023-07-22T11:13:41.364Z,4.35
2023-07-22T11:16:12.674Z,5.88
2023-07-22T11:18:41.850Z,1.50
2023-07-22T11:21:13.421Z,1.75
2023-07-22T11:23:40.736Z,1.38
2023-07-22T11:26:07.849Z,1.20
2023-07-22T11:28:35.124Z,1.48
2023-07-22T11:31:02.626Z,1.60
2023-07-22T11:33:40.391Z,1.50
2023-07-22T11:36:07.786Z,1.52
2023-07-22T11:38:34.543Z,2.15
2023-07-22T11:41:03.273Z,1.73
2023-07-22T11:43:30.634Z,1.55
2023-07-22T11:45:58.204Z,1.60
2023-07-22T11:48:25.471Z,1.40
2023-07-22T11:50:53.873Z,1.63
2023-07-22T11:53:21.144Z,1.77
2023-07-22T11:55:48.720Z,1.42
2023-07-22T11:58:16.099Z,1.45
2023-07-22T12:01:00.452Z,1.70
2023-07-22T12:03:36.012Z,2.50
2023-07-22T12:06:05.216Z,14.95
2023-07-22T12:08:32.504Z,1.60
2023-07-22T12:11:00.344Z,2.08
2023-07-22T12:13:28.064Z,1.90
2023-07-22T12:16:02.990Z,2.25
2023-07-22T12:18:42.267Z,1.77
2023-07-22T12:21:10.717Z,1.50
2023-07-22T12:23:39.300Z,1.50
2023-07-22T12:26:07.395Z,1.60
2023-07-22T12:28:35.046Z,2.13
2023-07-22T12:31:03.172Z,1.60
2023-07-22T12:33:30.843Z,1.77
2023-07-22T12:35:58.802Z,5.10
2023-07-22T12:38:26.221Z,24.48
2023-07-22T12:40:53.588Z,2.90
2023-07-22T12:43:20.865Z,1.80
2023-07-22T12:45:48.120Z,1.40
2023-07-22T12:48:17.230Z,1.80
2023-07-22T12:50:46.699Z,2.08
2023-07-22T12:53:14.048Z,1.80
2023-07-22T12:55:41.450Z,2.22
2023-07-22T12:58:08.717Z,1.67
2023-07-22T13:00:36.062Z,1.98
2023-07-22T13:03:03.465Z,3.20
2023-07-22T13:05:30.953Z,2.63
2023-07-22T13:07:59.718Z,1.58
2023-07-22T13:10:33.502Z,1.75
2023-07-22T13:13:00.834Z,1.63
2023-07-22T13:15:28.259Z,3.53
2023-07-22T13:17:55.561Z,2.33
2023-07-22T13:20:23.077Z,1.95
2023-07-22T13:22:50.569Z,1.90
2023-07-22T13:25:17.843Z,2.00
2023-07-22T13:27:45.209Z,2.20
2023-07-22T13:30:12.646Z,1.80
2023-07-22T13:32:40.865Z,4.03
2023-07-22T13:35:09.512Z,3.53
2023-07-22T13:37:37.689Z,2.10
2023-07-22T13:40:11.718Z,2.22
2023-07-22T13:42:39.655Z,1.90
2023-07-22T13:45:07.544Z,2.75
2023-07-22T13:47:34.870Z,2.03
2023-07-22T13:50:02.403Z,2.35
2023-07-22T13:52:29.683Z,2.00
2023-07-22T13:54:56.838Z,2.22
2023-07-22T13:57:24.199Z,2.03
2023-07-22T13:59:51.426Z,2.20
2023-07-22T14:02:18.833Z,2.00
2023-07-22T14:04:46.244Z,1.50
2023-07-22T14:07:13.503Z,1.90
2023-07-22T14:09:40.812Z,1.70
2023-07-22T14:12:08.317Z,2.25
2023-07-22T14:14:35.920Z,2.30
2023-07-22T14:17:03.162Z,2.47
2023-07-22T14:19:30.651Z,2.25
2023-07-22T14:21:57.769Z,2.90
2023-07-22T14:24:25.137Z,8.13
2023-07-22T14:26:52.378Z,3.65
2023-07-22T14:29:19.715Z,2.55
2023-07-22T14:31:46.981Z,3.78
2023-07-22T14:34:14.343Z,2.20
2023-07-22T14:36:42.472Z,1.95
2023-07-22T14:39:11.301Z,2.20
2023-07-22T14:41:38.541Z,2.05
2023-07-22T14:44:06.375Z,2.15
2023-07-22T14:46:33.763Z,1.77
2023-07-22T14:49:01.082Z,1.98
2023-07-22T14:51:28.495Z,1.70
2023-07-22T14:53:55.996Z,1.40
2023-07-22T14:56:23.386Z,1.88
2023-07-22T14:58:51.003Z,2.05
2023-07-22T15:01:18.424Z,1.52
2023-07-22T15:03:45.886Z,1.35
2023-07-22T15:06:13.149Z,1.90
2023-07-22T15:08:40.448Z,1.88
2023-07-22T15:11:09.267Z,1.88
2023-07-22T15:13:36.452Z,2.15
2023-07-22T15:16:04.452Z,1.63
2023-07-22T15:18:31.757Z,1.60
2023-07-22T15:20:58.888Z,1.50
2023-07-22T15:23:26.244Z,1.65
2023-07-22T15:25:53.560Z,17.58
2023-07-22T15:28:20.789Z,50.33
2023-07-22T15:30:48.578Z,6.43
2023-07-22T15:33:15.787Z,1.70
2023-07-22T15:35:42.999Z,1.63
2023-07-22T15:38:10.208Z,1.85
2023-07-22T15:40:38.667Z,1.77
2023-07-22T15:43:06.140Z,1.40
2023-07-22T15:45:33.566Z,1.85
2023-07-22T15:48:01.484Z,1.65
2023-07-22T15:50:28.877Z,2.10
2023-07-22T15:52:56.365Z,1.90
2023-07-22T15:55:23.556Z,2.03
2023-07-22T15:57:50.965Z,1.80
2023-07-22T16:00:18.444Z,7.60
2023-07-22T16:02:45.896Z,5.10
2023-07-22T16:05:22.528Z,3.05
2023-07-22T16:07:50.516Z,2.60
2023-07-22T16:10:18.026Z,1.90
2023-07-22T16:12:45.366Z,1.70
2023-07-22T16:15:12.708Z,2.20
2023-07-22T16:17:39.963Z,1.67
2023-07-22T16:20:07.998Z,6.80
2023-07-22T16:22:36.583Z,2.95
2023-07-22T16:25:05.238Z,2.20
2023-07-22T16:27:32.456Z,1.60
2023-07-22T16:29:59.813Z,2.05
2023-07-22T16:32:27.020Z,1.92
2023-07-22T16:34:54.569Z,1.65
2023-07-22T16:37:22.098Z,1.92
2023-07-22T16:39:49.581Z,1.80
2023-07-22T16:42:16.802Z,16.55
2023-07-22T16:44:44.073Z,2.85
2023-07-22T16:47:11.271Z,1.95
2023-07-22T16:49:38.577Z,1.55
2023-07-22T16:52:06.238Z,1.80
2023-07-22T16:54:34.071Z,1.58
2023-07-22T16:57:01.223Z,1.70
2023-07-22T16:59:28.628Z,2.05
2023-07-22T17:01:55.963Z,1.90
2023-07-22T17:04:23.848Z,1.95
2023-07-22T17:06:51.077Z,2.33
2023-07-22T17:09:19.097Z,1.92
2023-07-22T17:11:46.517Z,2.40
2023-07-22T17:14:13.894Z,2.30
2023-07-22T17:16:40.707Z,2.08
2023-07-22T17:19:07.980Z,2.20
2023-07-22T17:21:35.400Z,2.30
2023-07-22T17:24:02.740Z,1.75
2023-07-22T17:26:30.013Z,2.40
2023-07-22T17:28:57.776Z,2.78
2023-07-22T17:31:25.353Z,2.97
2023-07-22T17:33:53.016Z,2.50
2023-07-22T17:36:20.265Z,2.88
2023-07-22T17:38:47.628Z,4.20
2023-07-22T17:41:15.019Z,2.45
2023-07-22T17:43:42.426Z,3.33
2023-07-22T17:46:10.386Z,2.50
2023-07-22T17:48:37.712Z,2.15
2023-07-22T17:51:05.194Z,2.10
2023-07-22T17:53:32.476Z,2.60
2023-07-22T17:56:00.107Z,2.55
2023-07-22T17:58:28.039Z,2.13
2023-07-22T18:00:55.411Z,2.40
2023-07-22T18:03:22.659Z,3.72
2023-07-22T18:05:50.206Z,3.15
2023-07-22T18:08:17.721Z,3.22
2023-07-22T18:10:45.278Z,2.65
2023-07-22T18:13:12.668Z,2.33
2023-07-22T18:15:39.827Z,2.97
2023-07-22T18:18:08.570Z,3.10
2023-07-22T18:20:36.458Z,4.30
2023-07-22T18:23:03.718Z,2.70
2023-07-22T18:25:30.545Z,3.03
2023-07-22T18:27:57.739Z,3.28
2023-07-22T18:30:24.989Z,3.40
2023-07-22T18:32:52.308Z,3.90
2023-07-22T18:35:19.608Z,9.55
2023-07-22T18:37:46.777Z,5.45
2023-07-22T18:40:14.511Z,4.20
2023-07-22T18:42:42.548Z,4.22
2023-07-22T18:45:10.740Z,13.88
2023-07-22T18:47:38.201Z,12.95
2023-07-22T18:50:06.576Z,12.60
2023-07-22T18:52:34.218Z,13.32
2023-07-22T18:55:01.545Z,19.88
2023-07-22T18:57:28.947Z,19.02
2023-07-22T18:59:56.281Z,17.63
2023-07-22T19:02:23.545Z,16.73
2023-07-22T19:04:50.890Z,15.27
2023-07-22T19:07:18.414Z,15.02
2023-07-22T19:09:45.795Z,17.35
2023-07-22T19:12:13.127Z,16.92
2023-07-22T19:14:40.384Z,15.93
2023-07-22T19:17:07.983Z,23.45
2023-07-22T19:19:35.519Z,33.00
2023-07-22T19:22:02.792Z,37.97
2023-07-22T19:24:30.361Z,44.40
2023-07-22T19:26:57.726Z,41.88
2023-07-22T19:29:25.027Z,32.13
2023-07-22T19:31:52.582Z,24.40
2023-07-22T19:34:19.911Z,21.80
2023-07-22T19:36:47.447Z,21.67
2023-07-22T19:39:17.868Z,24.73
2023-07-22T19:41:44.924Z,32.35
2023-07-22T19:44:12.572Z,31.20
2023-07-22T19:46:39.423Z,28.52
2023-07-22T19:49:06.965Z,27.67
2023-07-22T19:51:34.393Z,29.73
2023-07-22T19:54:01.380Z,35.13
2023-07-22T19:56:28.358Z,26.17
2023-07-22T19:58:55.694Z,22.10
2023-07-22T20:01:23.362Z,26.52
2023-07-22T20:03:53.476Z,26.38
2023-07-22T20:06:20.528Z,11.63
2023-07-22T20:08:50.236Z,9.02
2023-07-22T20:11:17.107Z,9.40
2023-07-22T20:13:44.955Z,8.23
2023-07-22T20:16:12.456Z,8.25
2023-07-22T20:18:39.465Z,7.95
2023-07-22T20:21:06.922Z,8.73
2023-07-22T20:23:33.843Z,8.10
2023-07-22T20:26:01.116Z,8.25
2023-07-22T20:28:30.405Z,13.63
2023-07-22T20:30:58.483Z,9.70
2023-07-22T20:33:27.080Z,8.43
2023-07-22T20:35:55.965Z,7.22
2023-07-22T20:38:23.060Z,7.57
2023-07-22T20:40:49.790Z,14.85
2023-07-22T20:43:17.155Z,17.55
2023-07-22T20:45:44.006Z,12.68
2023-07-22T20:48:11.433Z,8.02
2023-07-22T20:50:38.869Z,7.53
2023-07-22T20:53:06.408Z,9.02
2023-07-22T20:55:33.670Z,7.47
2023-07-22T20:58:01.295Z,10.43
2023-07-22T21:00:28.609Z,14.68
2023-07-22T21:02:55.563Z,16.98
2023-07-22T21:05:23.225Z,9.15
2023-07-22T21:07:52.290Z,7.32
2023-07-22T21:10:22.850Z,7.80
2023-07-22T21:12:49.672Z,8.45
2023-07-22T21:15:16.550Z,10.07
2023-07-22T21:17:44.500Z,7.45
2023-07-22T21:20:12.465Z,6.65
2023-07-22T21:22:39.799Z,21.17
2023-07-22T21:25:07.262Z,28.88
2023-07-22T21:27:42.900Z,21.73
2023-07-22T21:30:15.197Z,9.23
2023-07-22T21:32:42.774Z,6.75
2023-07-22T21:35:10.338Z,6.13
2023-07-22T21:37:37.123Z,6.50
2023-07-22T21:40:06.285Z,5.15
2023-07-22T21:42:33.857Z,6.53
2023-07-22T21:45:02.936Z,6.00
2023-07-22T21:47:30.240Z,5.45
2023-07-22T21:49:57.932Z,6.35
2023-07-22T21:52:25.286Z,6.25
2023-07-22T21:54:52.936Z,6.00
2023-07-22T21:57:20.433Z,6.63
2023-07-22T21:59:47.766Z,21.88
2023-07-22T22:02:15.288Z,25.58
2023-07-22T22:04:42.789Z,11.02
2023-07-22T22:07:09.606Z,19.08
2023-07-22T22:09:36.859Z,17.48
2023-07-22T22:12:04.510Z,20.17
2023-07-22T22:14:31.955Z,16.05
2023-07-22T22:16:59.310Z,10.45
2023-07-22T22:19:26.975Z,15.27
2023-07-22T22:21:54.448Z,18.65
2023-07-22T22:24:21.803Z,24.38
2023-07-22T22:26:49.060Z,11.27
2023-07-22T22:29:16.473Z,7.32
2023-07-22T22:31:43.659Z,6.97
2023-07-22T22:34:10.976Z,16.95
2023-07-22T22:36:38.483Z,17.05
2023-07-22T22:39:05.809Z,18.20
2023-07-22T22:41:33.089Z,7.63
2023-07-22T22:44:00.460Z,6.88
2023-07-22T22:46:27.825Z,6.20
2023-07-22T22:48:55.252Z,6.70
2023-07-22T22:51:22.725Z,5.80
2023-07-22T22:53:49.920Z,5.75
2023-07-22T22:56:17.248Z,5.82
2023-07-22T22:58:44.582Z,6.20
2023-07-22T23:01:16.322Z,7.43
2023-07-22T23:03:43.741Z,18.55
2023-07-22T23:06:19.724Z,25.88
2023-07-22T23:08:50.878Z,20.73
2023-07-22T23:11:21.143Z,9.57
2023-07-22T23:13:49.919Z,20.38
2023-07-22T23:16:18.014Z,15.15
2023-07-22T23:18:47.061Z,12.20
2023-07-22T23:21:15.993Z,7.35
2023-07-22T23:23:48.250Z,6.45
2023-07-22T23:26:16.554Z,5.82
2023-07-22T23:28:44.541Z,5.68
2023-07-22T23:31:12.467Z,12.57
2023-07-22T23:33:40.126Z,19.10
2023-07-22T23:36:08.948Z,18.15
2023-07-22T23:38:36.572Z,15.75
2023-07-22T23:41:04.381Z,15.77
2023-07-22T23:43:31.932Z,14.63
2023-07-22T23:45:59.292Z,14.23
2023-07-22T23:48:27.440Z,16.50
2023-07-22T23:50:56.003Z,15.95
2023-07-22T23:53:23.724Z,17.05
2023-07-22T23:55:51.622Z,15.88
2023-07-22T23:58:18.841Z,20.45
